sensor_id;sensor_type;location;lat;lon;timestamp;P1;durP1;ratioP1;P2;durP2;ratioP2
44384;SDS011;30101;32.778;34.994;2022-08-18T00:00:04;10.80;;;7.47;;
44384;SDS011;30101;32.778;34.994;2022-08-18T00:05:14;8.75;;;7.82;;
44384;SDS011;30101;32.778;34.994;2022-08-18T00:10:18;10.57;;;8.43;;
44384;SDS011;30101;32.778;34.994;2022-08-18T00:15:22;10.45;;;7.82;;
44384;SDS011;30101;32.778;34.994;2022-08-18T00:20:31;8.18;;;7.38;;
44384;SDS011;30101;32.778;34.994;2022-08-18T00:25:36;9.50;;;7.38;;
44384;SDS011;30101;32.778;34.994;2022-08-18T00:30:39;11.00;;;8.07;;
44384;SDS011;30101;32.778;34.994;2022-08-18T00:35:42;9.05;;;7.57;;
44384;SDS011;30101;32.778;34.994;2022-08-18T00:40:47;10.65;;;7.65;;
44384;SDS011;30101;32.778;34.994;2022-08-18T00:45:52;8.45;;;7.32;;
44384;SDS011;30101;32.778;34.994;2022-08-18T00:50:57;11.95;;;8.05;;
44384;SDS011;30101;32.778;34.994;2022-08-18T00:56:08;15.73;;;8.38;;
44384;SDS011;30101;32.778;34.994;2022-08-18T01:01:16;10.23;;;7.78;;
44384;SDS011;30101;32.778;34.994;2022-08-18T01:06:29;14.80;;;7.35;;
44384;SDS011;30101;32.778;34.994;2022-08-18T01:11:39;10.88;;;8.00;;
44384;SDS011;30101;32.778;34.994;2022-08-18T01:16:46;8.77;;;7.88;;
44384;SDS011;30101;32.778;34.994;2022-08-18T01:22:01;9.48;;;7.57;;
44384;SDS011;30101;32.778;34.994;2022-08-18T01:27:14;9.85;;;7.72;;
44384;SDS011;30101;32.778;34.994;2022-08-18T01:32:20;10.93;;;7.53;;
44384;SDS011;30101;32.778;34.994;2022-08-18T01:37:25;8.77;;;7.60;;
44384;SDS011;30101;32.778;34.994;2022-08-18T01:42:29;11.27;;;7.60;;
44384;SDS011;30101;32.778;34.994;2022-08-18T01:47:32;7.85;;;7.05;;
44384;SDS011;30101;32.778;34.994;2022-08-18T01:52:50;8.73;;;7.80;;
44384;SDS011;30101;32.778;34.994;2022-08-18T01:57:54;9.65;;;7.35;;
44384;SDS011;30101;32.778;34.994;2022-08-18T02:02:58;9.25;;;7.45;;
44384;SDS011;30101;32.778;34.994;2022-08-18T02:08:14;9.52;;;7.22;;
44384;SDS011;30101;32.778;34.994;2022-08-18T02:13:18;10.52;;;7.00;;
44384;SDS011;30101;32.778;34.994;2022-08-18T02:18:23;10.57;;;7.60;;
44384;SDS011;30101;32.778;34.994;2022-08-18T02:23:49;10.93;;;7.35;;
44384;SDS011;30101;32.778;34.994;2022-08-18T02:28:55;11.68;;;7.40;;
44384;SDS011;30101;32.778;34.994;2022-08-18T02:33:59;8.38;;;7.57;;
44384;SDS011;30101;32.778;34.994;2022-08-18T02:39:03;9.20;;;7.55;;
44384;SDS011;30101;32.778;34.994;2022-08-18T02:44:07;9.02;;;7.63;;
44384;SDS011;30101;32.778;34.994;2022-08-18T02:49:11;8.10;;;7.10;;
44384;SDS011;30101;32.778;34.994;2022-08-18T02:54:15;13.15;;;7.03;;
44384;SDS011;30101;32.778;34.994;2022-08-18T02:59:21;8.13;;;7.18;;
44384;SDS011;30101;32.778;34.994;2022-08-18T03:04:26;10.02;;;8.15;;
44384;SDS011;30101;32.778;34.994;2022-08-18T03:09:32;9.50;;;8.02;;
44384;SDS011;30101;32.778;34.994;2022-08-18T03:14:37;15.02;;;7.68;;
44384;SDS011;30101;32.778;34.994;2022-08-18T03:19:41;9.93;;;7.60;;
44384;SDS011;30101;32.778;34.994;2022-08-18T03:24:52;12.35;;;7.97;;
44384;SDS011;30101;32.778;34.994;2022-08-18T03:29:56;9.80;;;7.63;;
44384;SDS011;30101;32.778;34.994;2022-08-18T03:35:00;9.52;;;7.45;;
44384;SDS011;30101;32.778;34.994;2022-08-18T03:40:05;10.07;;;7.50;;
44384;SDS011;30101;32.778;34.994;2022-08-18T03:45:09;11.60;;;7.65;;
44384;SDS011;30101;32.778;34.994;2022-08-18T03:50:19;9.65;;;7.45;;
44384;SDS011;30101;32.778;34.994;2022-08-18T03:55:23;10.98;;;8.13;;
44384;SDS011;30101;32.778;34.994;2022-08-18T04:00:26;8.23;;;7.38;;
44384;SDS011;30101;32.778;34.994;2022-08-18T04:05:30;9.90;;;6.53;;
44384;SDS011;30101;32.778;34.994;2022-08-18T04:10:34;8.40;;;7.53;;
44384;SDS011;30101;32.778;34.994;2022-08-18T04:15:38;12.70;;;6.68;;
44384;SDS011;30101;32.778;34.994;2022-08-18T04:20:41;26.45;;;7.53;;
44384;SDS011;30101;32.778;34.994;2022-08-18T04:26:01;30.48;;;7.25;;
44384;SDS011;30101;32.778;34.994;2022-08-18T04:31:11;10.18;;;6.07;;
44384;SDS011;30101;32.778;34.994;2022-08-18T04:36:17;11.23;;;5.68;;
44384;SDS011;30101;32.778;34.994;2022-08-18T04:41:26;8.85;;;5.65;;
44384;SDS011;30101;32.778;34.994;2022-08-18T04:46:40;8.15;;;5.22;;
44384;SDS011;30101;32.778;34.994;2022-08-18T04:51:46;6.90;;;5.15;;
44384;SDS011;30101;32.778;34.994;2022-08-18T04:57:12;11.88;;;5.25;;
44384;SDS011;30101;32.778;34.994;2022-08-18T05:02:18;13.45;;;4.88;;
44384;SDS011;30101;32.778;34.994;2022-08-18T05:07:23;6.05;;;5.43;;
44384;SDS011;30101;32.778;34.994;2022-08-18T05:12:26;6.40;;;5.50;;
44384;SDS011;30101;32.778;34.994;2022-08-18T05:17:30;9.38;;;5.40;;
44384;SDS011;30101;32.778;34.994;2022-08-18T05:22:37;7.65;;;4.47;;
44384;SDS011;30101;32.778;34.994;2022-08-18T05:27:42;13.30;;;5.32;;
44384;SDS011;30101;32.778;34.994;2022-08-18T05:32:45;8.07;;;4.55;;
44384;SDS011;30101;32.778;34.994;2022-08-18T05:38:08;29.73;;;5.40;;
44384;SDS011;30101;32.778;34.994;2022-08-18T05:43:19;4.40;;;4.00;;
44384;SDS011;30101;32.778;34.994;2022-08-18T05:48:23;6.38;;;4.95;;
44384;SDS011;30101;32.778;34.994;2022-08-18T05:53:27;10.95;;;4.30;;
44384;SDS011;30101;32.778;34.994;2022-08-18T05:58:38;11.23;;;4.45;;
44384;SDS011;30101;32.778;34.994;2022-08-18T06:03:46;6.65;;;3.75;;
44384;SDS011;30101;32.778;34.994;2022-08-18T06:09:19;5.80;;;3.88;;
44384;SDS011;30101;32.778;34.994;2022-08-18T06:14:28;7.53;;;4.13;;
44384;SDS011;30101;32.778;34.994;2022-08-18T06:25:06;6.20;;;3.53;;
44384;SDS011;30101;32.778;34.994;2022-08-18T06:30:41;19.90;;;3.40;;
44384;SDS011;30101;32.778;34.994;2022-08-18T06:41:36;10.25;;;4.30;;
44384;SDS011;30101;32.778;34.994;2022-08-18T06:57:38;8.07;;;3.30;;
44384;SDS011;30101;32.778;34.994;2022-08-18T07:08:42;9.38;;;3.80;;
44384;SDS011;30101;32.778;34.994;2022-08-18T07:13:48;5.57;;;3.65;;
44384;SDS011;30101;32.778;34.994;2022-08-18T07:19:16;21.20;;;4.28;;
44384;SDS011;30101;32.778;34.994;2022-08-18T07:24:28;7.25;;;4.07;;
44384;SDS011;30101;32.778;34.994;2022-08-18T07:29:39;6.13;;;4.85;;
44384;SDS011;30101;32.778;34.994;2022-08-18T07:35:01;4.47;;;3.80;;
44384;SDS011;30101;32.778;34.994;2022-08-18T07:40:30;8.90;;;4.63;;
44384;SDS011;30101;32.778;34.994;2022-08-18T07:45:49;4.07;;;3.47;;
44384;SDS011;30101;32.778;34.994;2022-08-18T07:56:16;7.03;;;3.95;;
44384;SDS011;30101;32.778;34.994;2022-08-18T08:01:32;4.07;;;3.53;;
44384;SDS011;30101;32.778;34.994;2022-08-18T08:06:53;5.22;;;3.72;;
44384;SDS011;30101;32.778;34.994;2022-08-18T08:17:51;5.35;;;3.65;;
44384;SDS011;30101;32.778;34.994;2022-08-18T08:34:32;11.55;;;3.90;;
44384;SDS011;30101;32.778;34.994;2022-08-18T08:50:21;7.18;;;4.63;;
44384;SDS011;30101;32.778;34.994;2022-08-18T08:55:32;5.10;;;3.78;;
44384;SDS011;30101;32.778;34.994;2022-08-18T09:00:38;5.50;;;4.88;;
44384;SDS011;30101;32.778;34.994;2022-08-18T09:11:43;6.68;;;3.83;;
44384;SDS011;30101;32.778;34.994;2022-08-18T09:22:22;6.57;;;4.28;;
44384;SDS011;30101;32.778;34.994;2022-08-18T09:27:37;4.43;;;4.03;;
44384;SDS011;30101;32.778;34.994;2022-08-18T09:33:25;5.25;;;4.35;;
44384;SDS011;30101;32.778;34.994;2022-08-18T09:44:10;4.05;;;3.65;;
44384;SDS011;30101;32.778;34.994;2022-08-18T09:54:32;6.03;;;4.45;;
44384;SDS011;30101;32.778;34.994;2022-08-18T10:37:10;7.97;;;4.10;;
44384;SDS011;30101;32.778;34.994;2022-08-18T10:42:25;5.82;;;5.22;;
44384;SDS011;30101;32.778;34.994;2022-08-18T10:47:36;5.47;;;4.07;;
44384;SDS011;30101;32.778;34.994;2022-08-18T11:19:38;4.88;;;3.42;;
44384;SDS011;30101;32.778;34.994;2022-08-18T11:24:44;3.92;;;3.53;;
44384;SDS011;30101;32.778;34.994;2022-08-18T11:29:48;6.20;;;3.75;;
44384;SDS011;30101;32.778;34.994;2022-08-18T11:40:03;5.20;;;3.58;;
44384;SDS011;30101;32.778;34.994;2022-08-18T11:45:18;5.07;;;4.00;;
44384;SDS011;30101;32.778;34.994;2022-08-18T11:50:27;5.60;;;3.58;;
44384;SDS011;30101;32.778;34.994;2022-08-18T11:55:33;5.32;;;3.10;;
44384;SDS011;30101;32.778;34.994;2022-08-18T12:05:53;4.82;;;3.80;;
44384;SDS011;30101;32.778;34.994;2022-08-18T12:11:05;7.72;;;3.63;;
44384;SDS011;30101;32.778;34.994;2022-08-18T12:16:33;6.63;;;3.88;;
44384;SDS011;30101;32.778;34.994;2022-08-18T12:26:43;7.95;;;4.30;;
44384;SDS011;30101;32.778;34.994;2022-08-18T12:31:50;7.70;;;4.38;;
44384;SDS011;30101;32.778;34.994;2022-08-18T12:36:56;6.97;;;6.28;;
44384;SDS011;30101;32.778;34.994;2022-08-18T12:42:02;8.30;;;4.03;;
44384;SDS011;30101;32.778;34.994;2022-08-18T12:47:24;6.03;;;4.40;;
44384;SDS011;30101;32.778;34.994;2022-08-18T12:52:33;7.80;;;4.30;;
44384;SDS011;30101;32.778;34.994;2022-08-18T12:57:36;9.05;;;4.10;;
44384;SDS011;30101;32.778;34.994;2022-08-18T13:02:55;9.48;;;6.50;;
44384;SDS011;30101;32.778;34.994;2022-08-18T13:08:00;6.32;;;4.97;;
44384;SDS011;30101;32.778;34.994;2022-08-18T13:13:07;5.15;;;4.20;;
44384;SDS011;30101;32.778;34.994;2022-08-18T13:18:14;4.80;;;4.30;;
44384;SDS011;30101;32.778;34.994;2022-08-18T13:23:19;7.45;;;4.20;;
44384;SDS011;30101;32.778;34.994;2022-08-18T13:28:31;6.67;;;4.47;;
44384;SDS011;30101;32.778;34.994;2022-08-18T13:33:37;10.85;;;5.70;;
44384;SDS011;30101;32.778;34.994;2022-08-18T13:39:01;6.57;;;4.72;;
44384;SDS011;30101;32.778;34.994;2022-08-18T13:44:04;5.88;;;4.40;;
44384;SDS011;30101;32.778;34.994;2022-08-18T13:49:14;6.65;;;5.05;;
44384;SDS011;30101;32.778;34.994;2022-08-18T13:54:28;6.55;;;5.05;;
44384;SDS011;30101;32.778;34.994;2022-08-18T13:59:37;6.50;;;4.97;;
44384;SDS011;30101;32.778;34.994;2022-08-18T14:04:48;8.13;;;5.60;;
44384;SDS011;30101;32.778;34.994;2022-08-18T14:09:53;5.70;;;5.00;;
44384;SDS011;30101;32.778;34.994;2022-08-18T14:14:58;8.40;;;5.40;;
44384;SDS011;30101;32.778;34.994;2022-08-18T14:20:03;7.45;;;5.43;;
44384;SDS011;30101;32.778;34.994;2022-08-18T14:25:16;6.50;;;5.65;;
44384;SDS011;30101;32.778;34.994;2022-08-18T14:30:24;6.38;;;5.70;;
44384;SDS011;30101;32.778;34.994;2022-08-18T14:35:28;8.15;;;6.22;;
44384;SDS011;30101;32.778;34.994;2022-08-18T14:40:52;6.82;;;5.65;;
44384;SDS011;30101;32.778;34.994;2022-08-18T14:45:56;9.35;;;6.18;;
44384;SDS011;30101;32.778;34.994;2022-08-18T14:50:59;6.20;;;5.57;;
44384;SDS011;30101;32.778;34.994;2022-08-18T14:56:05;12.75;;;6.95;;
44384;SDS011;30101;32.778;34.994;2022-08-18T15:01:12;8.90;;;6.25;;
44384;SDS011;30101;32.778;34.994;2022-08-18T15:06:18;6.90;;;5.97;;
44384;SDS011;30101;32.778;34.994;2022-08-18T15:11:28;6.75;;;6.22;;
44384;SDS011;30101;32.778;34.994;2022-08-18T15:16:33;8.38;;;6.53;;
44384;SDS011;30101;32.778;34.994;2022-08-18T15:21:41;7.57;;;6.88;;
44384;SDS011;30101;32.778;34.994;2022-08-18T15:26:45;8.00;;;6.35;;
44384;SDS011;30101;32.778;34.994;2022-08-18T15:31:59;7.65;;;6.28;;
44384;SDS011;30101;32.778;34.994;2022-08-18T15:37:12;8.45;;;6.15;;
44384;SDS011;30101;32.778;34.994;2022-08-18T15:42:16;9.07;;;7.10;;
44384;SDS011;30101;32.778;34.994;2022-08-18T15:47:20;6.65;;;5.97;;
44384;SDS011;30101;32.778;34.994;2022-08-18T15:52:26;6.80;;;5.80;;
44384;SDS011;30101;32.778;34.994;2022-08-18T15:57:30;8.85;;;6.40;;
44384;SDS011;30101;32.778;34.994;2022-08-18T16:02:42;8.87;;;6.70;;
44384;SDS011;30101;32.778;34.994;2022-08-18T16:07:52;7.60;;;6.88;;
44384;SDS011;30101;32.778;34.994;2022-08-18T16:12:58;7.43;;;6.72;;
44384;SDS011;30101;32.778;34.994;2022-08-18T16:18:03;8.07;;;7.30;;
44384;SDS011;30101;32.778;34.994;2022-08-18T16:23:08;10.43;;;7.18;;
44384;SDS011;30101;32.778;34.994;2022-08-18T16:28:12;11.13;;;7.80;;
44384;SDS011;30101;32.778;34.994;2022-08-18T16:33:16;8.90;;;7.93;;
44384;SDS011;30101;32.778;34.994;2022-08-18T16:38:19;10.35;;;7.40;;
44384;SDS011;30101;32.778;34.994;2022-08-18T16:43:23;7.85;;;7.05;;
44384;SDS011;30101;32.778;34.994;2022-08-18T16:48:28;10.70;;;7.80;;
44384;SDS011;30101;32.778;34.994;2022-08-18T16:53:32;10.82;;;8.25;;
44384;SDS011;30101;32.778;34.994;2022-08-18T16:58:42;9.43;;;7.80;;
44384;SDS011;30101;32.778;34.994;2022-08-18T17:03:45;10.15;;;8.43;;
44384;SDS011;30101;32.778;34.994;2022-08-18T17:08:49;8.73;;;7.90;;
44384;SDS011;30101;32.778;34.994;2022-08-18T17:13:53;14.55;;;8.73;;
44384;SDS011;30101;32.778;34.994;2022-08-18T17:18:58;9.77;;;7.68;;
44384;SDS011;30101;32.778;34.994;2022-08-18T17:24:05;7.97;;;7.28;;
44384;SDS011;30101;32.778;34.994;2022-08-18T17:29:14;10.57;;;7.65;;
44384;SDS011;30101;32.778;34.994;2022-08-18T17:34:31;11.77;;;7.93;;
44384;SDS011;30101;32.778;34.994;2022-08-18T17:39:43;9.98;;;7.75;;
44384;SDS011;30101;32.778;34.994;2022-08-18T17:45:08;10.57;;;9.10;;
44384;SDS011;30101;32.778;34.994;2022-08-18T17:50:33;11.85;;;8.25;;
44384;SDS011;30101;32.778;34.994;2022-08-18T17:55:42;9.25;;;8.35;;
44384;SDS011;30101;32.778;34.994;2022-08-18T18:00:50;10.25;;;9.20;;
44384;SDS011;30101;32.778;34.994;2022-08-18T18:05:54;8.70;;;7.80;;
44384;SDS011;30101;32.778;34.994;2022-08-18T18:11:09;9.85;;;8.95;;
44384;SDS011;30101;32.778;34.994;2022-08-18T18:16:24;10.05;;;8.38;;
44384;SDS011;30101;32.778;34.994;2022-08-18T18:21:35;8.80;;;7.87;;
44384;SDS011;30101;32.778;34.994;2022-08-18T18:27:00;9.27;;;8.23;;
44384;SDS011;30101;32.778;34.994;2022-08-18T18:32:26;9.52;;;8.10;;
44384;SDS011;30101;32.778;34.994;2022-08-18T18:37:37;9.43;;;8.52;;
44384;SDS011;30101;32.778;34.994;2022-08-18T18:42:49;8.20;;;7.50;;
44384;SDS011;30101;32.778;34.994;2022-08-18T18:48:04;9.57;;;8.68;;
44384;SDS011;30101;32.778;34.994;2022-08-18T18:53:43;10.13;;;9.13;;
44384;SDS011;30101;32.778;34.994;2022-08-18T19:04:38;9.90;;;8.40;;
44384;SDS011;30101;32.778;34.994;2022-08-18T19:15:14;9.90;;;8.90;;
44384;SDS011;30101;32.778;34.994;2022-08-18T19:20:20;11.73;;;9.40;;
44384;SDS011;30101;32.778;34.994;2022-08-18T19:25:34;10.45;;;9.43;;
44384;SDS011;30101;32.778;34.994;2022-08-18T19:30:45;10.73;;;9.70;;
44384;SDS011;30101;32.778;34.994;2022-08-18T19:36:03;10.65;;;9.10;;
44384;SDS011;30101;32.778;34.994;2022-08-18T19:41:24;12.35;;;11.15;;
44384;SDS011;30101;32.778;34.994;2022-08-18T19:46:38;11.65;;;9.10;;
44384;SDS011;30101;32.778;34.994;2022-08-18T19:51:47;11.05;;;9.93;;
44384;SDS011;30101;32.778;34.994;2022-08-18T20:02:53;9.95;;;9.05;;
44384;SDS011;30101;32.778;34.994;2022-08-18T20:13:53;13.75;;;9.88;;
44384;SDS011;30101;32.778;34.994;2022-08-18T20:18:59;11.02;;;9.52;;
44384;SDS011;30101;32.778;34.994;2022-08-18T20:34:37;8.77;;;7.85;;
44384;SDS011;30101;32.778;34.994;2022-08-18T20:39:47;10.90;;;8.02;;
44384;SDS011;30101;32.778;34.994;2022-08-18T21:00:55;10.98;;;8.05;;
44384;SDS011;30101;32.778;34.994;2022-08-18T21:05:59;13.23;;;8.98;;
44384;SDS011;30101;32.778;34.994;2022-08-18T21:11:07;9.10;;;8.20;;
44384;SDS011;30101;32.778;34.994;2022-08-18T21:16:42;10.55;;;7.97;;
44384;SDS011;30101;32.778;34.994;2022-08-18T21:21:47;10.02;;;9.05;;
44384;SDS011;30101;32.778;34.994;2022-08-18T21:26:55;12.30;;;9.82;;
44384;SDS011;30101;32.778;34.994;2022-08-18T21:32:12;11.88;;;8.35;;
44384;SDS011;30101;32.778;34.994;2022-08-18T21:37:39;9.27;;;8.27;;
44384;SDS011;30101;32.778;34.994;2022-08-18T21:42:43;10.13;;;8.88;;
44384;SDS011;30101;32.778;34.994;2022-08-18T21:47:49;10.27;;;8.55;;
44384;SDS011;30101;32.778;34.994;2022-08-18T21:52:56;14.65;;;8.70;;
44384;SDS011;30101;32.778;34.994;2022-08-18T22:03:21;12.05;;;8.73;;
44384;SDS011;30101;32.778;34.994;2022-08-18T22:08:31;9.23;;;8.07;;
44384;SDS011;30101;32.778;34.994;2022-08-18T22:13:51;9.95;;;9.05;;
44384;SDS011;30101;32.778;34.994;2022-08-18T22:24:16;9.07;;;8.07;;
44384;SDS011;30101;32.778;34.994;2022-08-18T22:29:31;11.40;;;8.63;;
44384;SDS011;30101;32.778;34.994;2022-08-18T22:34:48;9.80;;;7.97;;
44384;SDS011;30101;32.778;34.994;2022-08-18T22:39:52;13.60;;;9.15;;
44384;SDS011;30101;32.778;34.994;2022-08-18T22:44:56;10.43;;;8.70;;
44384;SDS011;30101;32.778;34.994;2022-08-18T22:50:07;11.02;;;7.72;;
44384;SDS011;30101;32.778;34.994;2022-08-18T22:55:13;12.60;;;9.00;;
44384;SDS011;30101;32.778;34.994;2022-08-18T23:00:25;9.63;;;8.63;;
44384;SDS011;30101;32.778;34.994;2022-08-18T23:05:29;10.43;;;9.18;;
44384;SDS011;30101;32.778;34.994;2022-08-18T23:10:33;13.68;;;8.82;;
44384;SDS011;30101;32.778;34.994;2022-08-18T23:15:36;9.73;;;8.82;;
44384;SDS011;30101;32.778;34.994;2022-08-18T23:20:40;9.48;;;8.50;;
44384;SDS011;30101;32.778;34.994;2022-08-18T23:25:45;9.45;;;8.23;;
44384;SDS011;30101;32.778;34.994;2022-08-18T23:30:50;8.50;;;7.70;;
44384;SDS011;30101;32.778;34.994;2022-08-18T23:35:55;9.52;;;8.48;;
44384;SDS011;30101;32.778;34.994;2022-08-18T23:40:59;9.48;;;8.32;;
44384;SDS011;30101;32.778;34.994;2022-08-18T23:46:02;9.85;;;7.82;;
44384;SDS011;30101;32.778;34.994;2022-08-18T23:51:06;9.73;;;8.23;;
44384;SDS011;30101;32.778;34.994;2022-08-18T23:56:09;10.38;;;8.35;;
